Time,TemperatureF,DewpointF,PressureIn,WindDirection,WindDirectionDegrees,WindSpeedMPH,WindSpeedGustMPH,Humidity,HourlyPrecipIn,Conditions,Clouds,dailyrainin,SoftwareType,DateUTC
2013-01-17 00:02:00,28.0,21.0,-100.00,NNW,340,15.0,21.0,76,0.00,,,-99.99,,2013-01-17 06:02:00,
2013-01-17 00:12:00,27.0,21.0,-100.00,NNW,335,10.0,16.0,76,0.00,,,-99.99,,2013-01-17 06:12:00,
2013-01-17 00:22:00,27.0,20.0,-100.00,NNW,340,11.0,17.0,76,0.00,,,-99.99,,2013-01-17 06:22:00,
2013-01-17 00:32:00,26.0,20.0,-100.00,NNW,330,10.0,16.0,77,0.00,,,-99.99,,2013-01-17 06:32:00,
2013-01-17 00:42:00,26.0,20.0,-100.00,NNW,330,10.0,16.0,77,0.00,,,-99.99,,2013-01-17 06:42:00,
2013-01-17 00:52:00,26.0,20.0,-100.00,NNW,330,11.0,15.0,78,0.00,,,-99.99,,2013-01-17 06:52:00,
2013-01-17 01:02:00,26.0,20.0,-100.00,NNW,330,11.0,15.0,78,0.00,,,-99.99,,2013-01-17 07:02:00,
2013-01-17 01:12:00,25.0,20.0,-100.00,NW,325,12.0,16.0,78,0.00,,,-99.99,,2013-01-17 07:12:00,
2013-01-17 01:22:00,25.0,19.0,-100.00,NW,325,12.0,16.0,78,0.00,,,-99.99,,2013-01-17 07:22:00,
2013-01-17 01:32:00,24.0,19.0,-100.00,NNW,330,9.0,14.0,78,0.00,,,-99.99,,2013-01-17 07:32:00,
2013-01-17 01:42:00,24.0,19.0,-100.00,NNW,330,9.0,14.0,78,0.00,,,-99.99,,2013-01-17 07:42:00,
2013-01-17 01:52:00,24.0,18.0,-100.00,NNW,330,8.0,14.0,78,0.00,,,-99.99,,2013-01-17 07:52:00,
2013-01-17 02:02:00,24.0,18.0,-100.00,NNW,330,8.0,14.0,78,0.00,,,-99.99,,2013-01-17 08:02:00,
2013-01-17 02:12:00,24.0,18.0,-100.00,NNW,330,11.0,16.0,78,0.00,,,-99.99,,2013-01-17 08:12:00,
2013-01-17 02:22:00,23.0,17.0,-100.00,NNW,335,11.0,18.0,78,0.00,,,-99.99,,2013-01-17 08:22:00,
2013-01-17 02:32:00,22.0,16.0,-100.00,NNW,340,9.0,13.0,79,0.00,,,-99.99,,2013-01-17 08:32:00,
2013-01-17 02:43:00,22.0,16.0,-100.00,NNW,340,9.0,13.0,79,0.00,,,-99.99,,2013-01-17 08:43:00,
2013-01-17 02:52:00,22.0,16.0,-100.00,NNW,335,11.0,16.0,78,0.00,,,-99.99,,2013-01-17 08:52:00,
2013-01-17 03:02:00,22.0,16.0,-100.00,NNW,335,11.0,16.0,78,0.00,,,-99.99,,2013-01-17 09:02:00,
2013-01-17 03:12:00,21.0,16.0,-100.00,NW,325,12.0,18.0,79,0.00,,,-99.99,,2013-01-17 09:12:00,
2013-01-17 03:22:00,20.0,15.0,-100.00,NNW,335,9.0,18.0,78,0.00,,,-99.99,,2013-01-17 09:22:00,
2013-01-17 03:32:00,20.0,15.0,-100.00,NNW,335,9.0,18.0,78,0.00,,,-99.99,,2013-01-17 09:32:00,
2013-01-17 03:42:00,20.0,14.0,-100.00,NNW,330,7.0,13.0,78,0.00,,,-99.99,,2013-01-17 09:42:00,
2013-01-17 03:52:00,20.0,14.0,-100.00,NW,325,7.0,13.0,77,0.00,,,-99.99,,2013-01-17 09:52:00,
2013-01-17 04:02:00,19.0,14.0,-100.00,NW,325,6.0,12.0,77,0.00,,,-99.99,,2013-01-17 10:02:00,
2013-01-17 04:12:00,19.0,13.0,-100.00,NNW,330,6.0,11.0,77,0.00,,,-99.99,,2013-01-17 10:12:00,
2013-01-17 04:22:00,19.0,13.0,-100.00,NNW,335,7.0,11.0,77,0.00,,,-99.99,,2013-01-17 10:22:00,
2013-01-17 04:32:00,17.0,11.0,-100.00,NNW,345,6.0,11.0,76,0.00,,,-99.99,,2013-01-17 10:32:00,
2013-01-17 04:42:00,17.0,11.0,-100.00,NNW,345,6.0,11.0,76,0.00,,,-99.99,,2013-01-17 10:42:00,
2013-01-17 04:52:00,17.0,11.0,-100.00,NW,305,8.0,13.0,75,0.00,,,-99.99,,2013-01-17 10:52:00,
2013-01-17 05:02:00,17.0,11.0,-100.00,NW,305,8.0,13.0,75,0.00,,,-99.99,,2013-01-17 11:02:00,
2013-01-17 05:12:00,17.0,11.0,-100.00,NW,305,8.0,13.0,75,0.00,,,-99.99,,2013-01-17 11:12:00,
2013-01-17 05:22:00,17.0,10.0,-100.00,NW,325,6.0,11.0,73,0.00,,,-99.99,,2013-01-17 11:22:00,
2013-01-17 05:33:00,16.0,9.0,-100.00,NW,325,10.0,14.0,73,0.00,,,-99.99,,2013-01-17 11:33:00,
2013-01-17 05:42:00,16.0,9.0,-100.00,NW,325,10.0,14.0,73,0.00,,,-99.99,,2013-01-17 11:42:00,
2013-01-17 05:53:00,15.0,8.0,-100.00,NW,325,9.0,12.0,71,0.00,,,-99.99,,2013-01-17 11:53:00,
2013-01-17 06:02:00,15.0,8.0,-100.00,NW,325,9.0,12.0,71,0.00,,,-99.99,,2013-01-17 12:02:00,
2013-01-17 06:12:00,15.0,8.0,-100.00,NNW,330,7.0,11.0,71,0.00,,,-99.99,,2013-01-17 12:12:00,
2013-01-17 06:22:00,15.0,7.0,-100.00,NNW,330,6.0,11.0,70,0.00,,,-99.99,,2013-01-17 12:22:00,
2013-01-17 06:32:00,15.0,7.0,-100.00,West,280,5.0,7.0,70,0.00,,,-99.99,,2013-01-17 12:32:00,
2013-01-17 06:42:00,14.0,6.0,-100.00,NW,315,6.0,11.0,70,0.00,,,-99.99,,2013-01-17 12:42:00,
2013-01-17 06:52:00,14.0,6.0,-100.00,WNW,300,6.0,10.0,69,0.00,,,-99.99,,2013-01-17 12:52:00,
2013-01-17 07:03:00,14.0,6.0,-100.00,WNW,300,6.0,10.0,69,0.00,,,-99.99,,2013-01-17 13:03:00,
2013-01-17 07:12:00,14.0,6.0,-100.00,WNW,300,6.0,10.0,69,0.00,,,-99.99,,2013-01-17 13:12:00,
2013-01-17 07:22:00,14.0,6.0,-100.00,WNW,295,4.0,7.0,68,0.00,,,-99.99,,2013-01-17 13:22:00,
2013-01-17 07:33:00,14.0,6.0,-100.00,WNW,295,4.0,7.0,68,0.00,,,-99.99,,2013-01-17 13:33:00,
2013-01-17 07:42:00,14.0,6.0,-100.00,WNW,295,4.0,7.0,68,0.00,,,-99.99,,2013-01-17 13:42:00,
2013-01-17 07:53:00,14.0,6.0,-100.00,NW,315,4.0,6.0,69,0.00,,,-99.99,,2013-01-17 13:53:00,
2013-01-17 08:03:00,14.0,6.0,-100.00,NW,315,4.0,6.0,69,0.00,,,-99.99,,2013-01-17 14:03:00,
2013-01-17 08:12:00,14.0,6.0,-100.00,WNW,295,5.0,8.0,69,0.00,,,-99.99,,2013-01-17 14:12:00,
2013-01-17 08:23:00,14.0,6.0,-100.00,NW,305,3.0,7.0,68,0.00,,,-99.99,,2013-01-17 14:23:00,
2013-01-17 08:33:00,15.0,6.0,-100.00,NW,315,6.0,10.0,66,0.00,,,-99.99,,2013-01-17 14:33:00,
2013-01-17 08:42:00,15.0,6.0,-100.00,NW,315,6.0,10.0,66,0.00,,,-99.99,,2013-01-17 14:42:00,
2013-01-17 08:53:00,16.0,6.0,-100.00,West,270,2.0,6.0,64,0.00,,,-99.99,,2013-01-17 14:53:00,
2013-01-17 09:03:00,16.0,6.0,-100.00,West,270,2.0,6.0,64,0.00,,,-99.99,,2013-01-17 15:03:00,
2013-01-17 09:12:00,16.0,6.0,-100.00,WNW,300,2.0,4.0,63,0.00,,,-99.99,,2013-01-17 15:12:00,
2013-01-17 09:22:00,17.0,6.0,-100.00,NW,315,1.0,4.0,63,0.00,,,-99.99,,2013-01-17 15:22:00,
2013-01-17 09:33:00,17.0,6.0,-100.00,West,265,5.0,12.0,61,0.00,,,-99.99,,2013-01-17 15:33:00,
2013-01-17 09:43:00,17.0,6.0,-100.00,West,265,5.0,12.0,61,0.00,,,-99.99,,2013-01-17 15:43:00,
2013-01-17 09:52:00,18.0,6.0,-100.00,NW,315,7.0,10.0,59,0.00,,,-99.99,,2013-01-17 15:52:00,
2013-01-17 10:02:00,18.0,6.0,-100.00,NW,315,7.0,10.0,59,0.00,,,-99.99,,2013-01-17 16:02:00,
2013-01-17 10:12:00,18.0,6.0,-100.00,WNW,295,6.0,10.0,59,0.00,,,-99.99,,2013-01-17 16:12:00,
2013-01-17 10:22:00,18.0,6.0,-100.00,NW,310,5.0,9.0,59,0.00,,,-99.99,,2013-01-17 16:22:00,
2013-01-17 10:33:00,19.0,7.0,-100.00,NW,310,4.0,7.0,57,0.00,,,-99.99,,2013-01-17 16:33:00,
2013-01-17 10:43:00,19.0,7.0,-100.00,NW,310,4.0,7.0,57,0.00,,,-99.99,,2013-01-17 16:43:00,
2013-01-17 10:52:00,21.0,8.0,-100.00,NW,310,2.0,4.0,55,0.00,,,-99.99,,2013-01-17 16:52:00,
2013-01-17 11:03:00,21.0,8.0,-100.00,NW,310,2.0,4.0,55,0.00,,,-99.99,,2013-01-17 17:03:00,
2013-01-17 11:12:00,22.0,8.0,-100.00,South,175,1.0,5.0,54,0.00,,,-99.99,,2013-01-17 17:12:00,
2013-01-17 11:22:00,23.0,8.0,-100.00,WSW,240,3.0,6.0,53,0.00,,,-99.99,,2013-01-17 17:22:00,
2013-01-17 11:33:00,24.0,8.0,-100.00,WSW,240,3.0,8.0,50,0.00,,,-99.99,,2013-01-17 17:33:00,
2013-01-17 11:43:00,24.0,8.0,-100.00,WSW,240,3.0,8.0,50,0.00,,,-99.99,,2013-01-17 17:43:00,
2013-01-17 11:53:00,25.0,9.0,-100.00,West,265,2.0,4.0,49,0.00,,,-99.99,,2013-01-17 17:53:00,
2013-01-17 12:03:00,25.0,9.0,-100.00,West,265,2.0,4.0,49,0.00,,,-99.99,,2013-01-17 18:03:00,
2013-01-17 12:12:00,25.0,9.0,-100.00,West,265,2.0,4.0,49,0.00,,,-99.99,,2013-01-17 18:12:00,
2013-01-17 12:22:00,27.0,9.0,-100.00,WSW,240,5.0,8.0,46,0.00,,,-99.99,,2013-01-17 18:22:00,
2013-01-17 12:33:00,26.0,8.0,-100.00,SW,220,6.0,10.0,46,0.00,,,-99.99,,2013-01-17 18:33:00,
2013-01-17 12:44:00,26.0,8.0,-100.00,SW,220,6.0,10.0,46,0.00,,,-99.99,,2013-01-17 18:44:00,
2013-01-17 12:53:00,27.0,9.0,-100.00,SW,215,6.0,7.0,45,0.00,,,-99.99,,2013-01-17 18:53:00,
2013-01-17 13:03:00,27.0,9.0,-100.00,SW,215,6.0,7.0,45,0.00,,,-99.99,,2013-01-17 19:03:00,
2013-01-17 13:12:00,28.0,9.0,-100.00,SSW,200,6.0,8.0,44,0.00,,,-99.99,,2013-01-17 19:12:00,
2013-01-17 13:22:00,28.0,9.0,-100.00,SW,220,4.0,8.0,44,0.00,,,-99.99,,2013-01-17 19:22:00,
2013-01-17 13:33:00,30.0,11.0,-100.00,SW,230,4.0,6.0,43,0.00,,,-99.99,,2013-01-17 19:33:00,
2013-01-17 13:42:00,30.0,11.0,-100.00,SW,230,4.0,6.0,43,0.00,,,-99.99,,2013-01-17 19:42:00,
2013-01-17 13:53:00,32.0,11.0,-100.00,West,260,5.0,7.0,42,0.00,,,-99.99,,2013-01-17 19:53:00,
2013-01-17 14:03:00,32.0,11.0,-100.00,West,260,5.0,7.0,42,0.00,,,-99.99,,2013-01-17 20:03:00,
2013-01-17 14:12:00,32.0,11.0,-100.00,West,260,5.0,7.0,42,0.00,,,-99.99,,2013-01-17 20:12:00,
2013-01-17 14:23:00,33.0,11.0,-100.00,WSW,250,7.0,11.0,41,0.00,,,-99.99,,2013-01-17 20:23:00,
2013-01-17 14:33:00,33.0,12.0,-100.00,SW,230,7.0,11.0,42,0.00,,,-99.99,,2013-01-17 20:33:00,
2013-01-17 14:43:00,33.0,13.0,-100.00,SW,230,6.0,10.0,41,0.00,,,-99.99,,2013-01-17 20:43:00,
2013-01-17 14:54:00,34.0,13.0,-100.00,WSW,240,9.0,12.0,41,0.00,,,-99.99,,2013-01-17 20:54:00,
2013-01-17 15:03:00,34.0,13.0,-100.00,WSW,240,9.0,12.0,41,0.00,,,-99.99,,2013-01-17 21:03:00,
2013-01-17 15:12:00,34.0,13.0,-100.00,SW,235,7.0,12.0,42,0.00,,,-99.99,,2013-01-17 21:12:00,
2013-01-17 15:23:00,34.0,13.0,-100.00,West,265,7.0,11.0,42,0.00,,,-99.99,,2013-01-17 21:23:00,
2013-01-17 15:33:00,34.0,14.0,-100.00,WSW,255,7.0,12.0,42,0.00,,,-99.99,,2013-01-17 21:33:00,
2013-01-17 15:42:00,34.0,14.0,-100.00,WSW,255,7.0,12.0,42,0.00,,,-99.99,,2013-01-17 21:42:00,
2013-01-17 15:52:00,35.0,15.0,-100.00,West,280,9.0,11.0,43,0.00,,,-99.99,,2013-01-17 21:52:00,
2013-01-17 16:03:00,35.0,15.0,-100.00,West,280,9.0,11.0,43,0.00,,,-99.99,,2013-01-17 22:03:00,
2013-01-17 16:12:00,35.0,15.0,-100.00,West,265,6.0,9.0,43,0.00,,,-99.99,,2013-01-17 22:12:00,
2013-01-17 16:22:00,35.0,15.0,-100.00,WNW,295,5.0,9.0,44,0.00,,,-99.99,,2013-01-17 22:22:00,
2013-01-17 16:33:00,35.0,15.0,-100.00,West,260,4.0,6.0,44,0.00,,,-99.99,,2013-01-17 22:33:00,
2013-01-17 16:42:00,35.0,15.0,-100.00,West,260,4.0,6.0,44,0.00,,,-99.99,,2013-01-17 22:42:00,
2013-01-17 16:52:00,34.0,15.0,-100.00,WNW,285,3.0,5.0,44,0.00,,,-99.99,,2013-01-17 22:52:00,
2013-01-17 17:03:00,34.0,15.0,-100.00,WNW,285,3.0,5.0,44,0.00,,,-99.99,,2013-01-17 23:03:00,
2013-01-17 17:12:00,34.0,15.0,-100.00,West,275,2.0,5.0,45,0.00,,,-99.99,,2013-01-17 23:12:00,
2013-01-17 17:22:00,33.0,15.0,-100.00,West,280,1.0,4.0,46,0.00,,,-99.99,,2013-01-17 23:22:00,
2013-01-17 17:33:00,33.0,15.0,-100.00,NNW,340,2.0,3.0,47,0.00,,,-99.99,,2013-01-17 23:33:00,
2013-01-17 17:42:00,32.0,15.0,-100.00,NNW,335,1.0,2.0,48,0.00,,,-99.99,,2013-01-17 23:42:00,
2013-01-17 17:52:00,31.0,14.0,-100.00,SW,235,0.0,1.0,49,0.00,,,-99.99,,2013-01-17 23:52:00,
2013-01-17 18:02:00,31.0,14.0,-100.00,SW,220,0.0,1.0,50,0.00,,,-99.99,,2013-01-18 00:02:00,
2013-01-17 18:12:00,31.0,14.0,-100.00,SW,220,0.0,1.0,50,0.00,,,-99.99,,2013-01-18 00:12:00,
2013-01-17 18:23:00,29.0,15.0,-100.00,ESE,110,0.0,0.0,53,0.00,,,-99.99,,2013-01-18 00:23:00,
2013-01-17 18:32:00,29.0,15.0,-100.00,ESE,115,0.0,1.0,54,0.00,,,-99.99,,2013-01-18 00:32:00,
2013-01-17 18:42:00,28.0,15.0,-100.00,East,90,0.0,2.0,56,0.00,,,-99.99,,2013-01-18 00:42:00,
2013-01-17 18:53:00,28.0,15.0,-100.00,East,85,1.0,2.0,58,0.00,,,-99.99,,2013-01-18 00:53:00,
2013-01-17 19:03:00,28.0,15.0,-100.00,East,85,1.0,2.0,58,0.00,,,-99.99,,2013-01-18 01:03:00,
2013-01-17 19:12:00,27.0,17.0,-100.00,East,100,2.0,4.0,62,0.00,,,-99.99,,2013-01-18 01:12:00,
2013-01-17 19:22:00,27.0,16.0,-100.00,East,100,2.0,2.0,64,0.00,,,-99.99,,2013-01-18 01:22:00,
2013-01-17 19:33:00,28.0,18.0,-100.00,East,95,1.0,3.0,67,0.00,,,-99.99,,2013-01-18 01:33:00,
2013-01-17 19:43:00,28.0,18.0,-100.00,East,95,1.0,3.0,67,0.00,,,-99.99,,2013-01-18 01:43:00,
2013-01-17 19:52:00,26.0,17.0,-100.00,ESE,115,2.0,2.0,69,0.00,,,-99.99,,2013-01-18 01:52:00,
2013-01-17 20:02:00,26.0,17.0,-100.00,ESE,115,2.0,2.0,69,0.00,,,-99.99,,2013-01-18 02:02:00,
2013-01-17 20:12:00,26.0,17.0,-100.00,ENE,70,3.0,4.0,70,0.00,,,-99.99,,2013-01-18 02:12:00,
2013-01-17 20:22:00,25.0,17.0,-100.00,ENE,70,2.0,4.0,72,0.00,,,-99.99,,2013-01-18 02:22:00,
2013-01-17 20:32:00,26.0,18.0,-100.00,ESE,115,1.0,4.0,74,0.00,,,-99.99,,2013-01-18 02:32:00,
2013-01-17 20:42:00,26.0,18.0,-100.00,ESE,115,1.0,4.0,74,0.00,,,-99.99,,2013-01-18 02:42:00,
2013-01-17 20:52:00,25.0,18.0,-100.00,ESE,110,1.0,2.0,75,0.00,,,-99.99,,2013-01-18 02:52:00,
2013-01-17 21:02:00,25.0,18.0,-100.00,ESE,110,1.0,2.0,75,0.00,,,-99.99,,2013-01-18 03:02:00,
2013-01-17 21:12:00,25.0,18.0,-100.00,SE,135,2.0,2.0,75,0.00,,,-99.99,,2013-01-18 03:12:00,
2013-01-17 21:22:00,25.0,18.0,-100.00,ESE,115,2.0,3.0,75,0.00,,,-99.99,,2013-01-18 03:22:00,
2013-01-17 21:33:00,24.0,18.0,-100.00,ESE,115,1.0,3.0,76,0.00,,,-99.99,,2013-01-18 03:33:00,
2013-01-17 21:42:00,24.0,18.0,-100.00,ESE,115,1.0,3.0,76,0.00,,,-99.99,,2013-01-18 03:42:00,
2013-01-17 21:52:00,23.0,17.0,-100.00,SE,140,1.0,2.0,77,0.00,,,-99.99,,2013-01-18 03:52:00,
2013-01-17 22:02:00,23.0,17.0,-100.00,SE,140,1.0,2.0,77,0.00,,,-99.99,,2013-01-18 04:02:00,
2013-01-17 22:12:00,23.0,17.0,-100.00,SE,130,2.0,4.0,78,0.00,,,-99.99,,2013-01-18 04:12:00,
2013-01-17 22:22:00,25.0,19.0,-100.00,SE,145,4.0,6.0,78,0.00,,,-99.99,,2013-01-18 04:22:00,
2013-01-17 22:32:00,25.0,20.0,-100.00,SSE,160,3.0,4.0,78,0.00,,,-99.99,,2013-01-18 04:32:00,
2013-01-17 22:42:00,25.0,20.0,-100.00,SSE,160,3.0,4.0,78,0.00,,,-99.99,,2013-01-18 04:42:00,
2013-01-17 22:52:00,26.0,19.0,-100.00,South,180,2.0,7.0,76,0.00,,,-99.99,,2013-01-18 04:52:00,
2013-01-17 23:03:00,25.0,19.0,-100.00,South,180,3.0,4.0,76,0.00,,,-99.99,,2013-01-18 05:03:00,
2013-01-17 23:12:00,25.0,19.0,-100.00,South,180,3.0,6.0,76,0.00,,,-99.99,,2013-01-18 05:12:00,
2013-01-17 23:22:00,25.0,19.0,-100.00,South,170,5.0,7.0,76,0.00,,,-99.99,,2013-01-18 05:22:00,
2013-01-17 23:33:00,26.0,19.0,-100.00,SE,140,8.0,11.0,74,0.00,,,-99.99,,2013-01-18 05:33:00,
2013-01-17 23:42:00,26.0,19.0,-100.00,SE,140,8.0,11.0,74,0.00,,,-99.99,,2013-01-18 05:42:00,
2013-01-17 23:52:00,26.0,18.0,-100.00,SE,145,6.0,8.0,73,0.00,,,-99.99,,2013-01-18 05:52:00,